Kenefick, Texas
Current Conditions -  °F | °C
As of 4:55 PM on Friday 28 Nov 2014 (Local Time) from K6R3 Reporting Station
Broken Clouds Broken Clouds  
Wind Chill: 64°   Ceiling: 5000
Heat Index: 64°   Visibility: 7mi
Dew Point: 56°   Wind: 5mph
Humidity: 76%   Direction: 150°SSE
Pressure: 30.19"   Gusts: NA
Location:  30.0179°N, 94.9156°W
Report Text: K6R3 282255Z AUTO 15004KT 7SM SCT044 BKN050 18/14 A3019 RMK AO2 T01780136
Loading
Personal Weather Stations






























Interactive Weather Map New forecast layout! Learn more

10-Day Weather Forecast

Advertisements
Track Severe Weather on mobile